sensor_id;sensor_type;location;lat;lon;timestamp;P1;durP1;ratioP1;P2;durP2;ratioP2
1460;SDS011;724;49.910;12.530;2023-02-28T00:01:13;6.55;;;6.15;;
1460;SDS011;724;49.910;12.530;2023-02-28T00:03:40;6.70;;;6.30;;
1460;SDS011;724;49.910;12.530;2023-02-28T00:06:07;6.40;;;6.00;;
1460;SDS011;724;49.910;12.530;2023-02-28T00:08:35;6.93;;;6.53;;
1460;SDS011;724;49.910;12.530;2023-02-28T00:11:02;6.65;;;6.25;;
1460;SDS011;724;49.910;12.530;2023-02-28T00:13:31;6.78;;;6.38;;
1460;SDS011;724;49.910;12.530;2023-02-28T00:15:59;6.53;;;6.13;;
1460;SDS011;724;49.910;12.530;2023-02-28T00:18:27;6.60;;;6.20;;
1460;SDS011;724;49.910;12.530;2023-02-28T00:20:54;6.38;;;6.00;;
1460;SDS011;724;49.910;12.530;2023-02-28T00:23:20;6.70;;;6.30;;
1460;SDS011;724;49.910;12.530;2023-02-28T00:25:47;6.50;;;6.10;;
1460;SDS011;724;49.910;12.530;2023-02-28T00:28:14;6.68;;;6.28;;
1460;SDS011;724;49.910;12.530;2023-02-28T00:30:42;6.68;;;6.28;;
1460;SDS011;724;49.910;12.530;2023-02-28T00:33:09;6.10;;;5.80;;
1460;SDS011;724;49.910;12.530;2023-02-28T00:35:36;6.57;;;6.18;;
1460;SDS011;724;49.910;12.530;2023-02-28T00:38:02;5.90;;;5.60;;
1460;SDS011;724;49.910;12.530;2023-02-28T00:40:29;6.45;;;6.05;;
1460;SDS011;724;49.910;12.530;2023-02-28T00:42:56;6.20;;;5.90;;
1460;SDS011;724;49.910;12.530;2023-02-28T00:45:23;7.00;;;6.60;;
1460;SDS011;724;49.910;12.530;2023-02-28T00:47:51;6.60;;;6.20;;
1460;SDS011;724;49.910;12.530;2023-02-28T00:50:18;6.45;;;6.05;;
1460;SDS011;724;49.910;12.530;2023-02-28T00:52:45;6.20;;;5.90;;
1460;SDS011;724;49.910;12.530;2023-02-28T00:55:12;6.38;;;6.00;;
1460;SDS011;724;49.910;12.530;2023-02-28T00:57:39;6.85;;;6.45;;
1460;SDS011;724;49.910;12.530;2023-02-28T01:00:06;7.18;;;6.78;;
1460;SDS011;724;49.910;12.530;2023-02-28T01:02:34;6.80;;;6.40;;
1460;SDS011;724;49.910;12.530;2023-02-28T01:05:02;6.45;;;6.05;;
1460;SDS011;724;49.910;12.530;2023-02-28T01:07:30;6.82;;;6.43;;
1460;SDS011;724;49.910;12.530;2023-02-28T01:09:57;6.15;;;5.85;;
1460;SDS011;724;49.910;12.530;2023-02-28T01:12:23;6.68;;;6.28;;
1460;SDS011;724;49.910;12.530;2023-02-28T01:14:50;7.05;;;6.65;;
1460;SDS011;724;49.910;12.530;2023-02-28T01:17:17;6.90;;;6.50;;
1460;SDS011;724;49.910;12.530;2023-02-28T01:19:44;7.50;;;7.10;;
1460;SDS011;724;49.910;12.530;2023-02-28T01:22:12;7.40;;;7.00;;
1460;SDS011;724;49.910;12.530;2023-02-28T01:24:38;7.40;;;7.00;;
1460;SDS011;724;49.910;12.530;2023-02-28T01:27:05;7.18;;;6.78;;
1460;SDS011;724;49.910;12.530;2023-02-28T01:29:32;7.30;;;6.90;;
1460;SDS011;724;49.910;12.530;2023-02-28T01:31:58;7.00;;;6.60;;
1460;SDS011;724;49.910;12.530;2023-02-28T01:34:25;7.20;;;6.80;;
1460;SDS011;724;49.910;12.530;2023-02-28T01:36:52;7.35;;;6.95;;
1460;SDS011;724;49.910;12.530;2023-02-28T01:39:20;7.10;;;6.70;;
1460;SDS011;724;49.910;12.530;2023-02-28T01:41:48;7.60;;;7.20;;
1460;SDS011;724;49.910;12.530;2023-02-28T01:47:18;7.40;;;7.00;;
1460;SDS011;724;49.910;12.530;2023-02-28T01:49:46;7.45;;;7.05;;
1460;SDS011;724;49.910;12.530;2023-02-28T01:52:14;7.60;;;7.20;;
1460;SDS011;724;49.910;12.530;2023-02-28T01:54:47;7.68;;;7.28;;
1460;SDS011;724;49.910;12.530;2023-02-28T01:57:18;7.90;;;7.50;;
1460;SDS011;724;49.910;12.530;2023-02-28T01:59:48;7.90;;;7.50;;
1460;SDS011;724;49.910;12.530;2023-02-28T02:02:20;7.35;;;6.95;;
1460;SDS011;724;49.910;12.530;2023-02-28T02:04:50;7.80;;;7.40;;
1460;SDS011;724;49.910;12.530;2023-02-28T02:07:20;7.15;;;6.75;;
1460;SDS011;724;49.910;12.530;2023-02-28T02:09:56;7.55;;;7.15;;
1460;SDS011;724;49.910;12.530;2023-02-28T02:12:27;7.40;;;7.00;;
1460;SDS011;724;49.910;12.530;2023-02-28T02:15:08;7.70;;;7.30;;
1460;SDS011;724;49.910;12.530;2023-02-28T02:17:43;7.40;;;7.00;;
1460;SDS011;724;49.910;12.530;2023-02-28T02:20:19;7.57;;;7.18;;
1460;SDS011;724;49.910;12.530;2023-02-28T02:23:29;6.93;;;6.53;;
1460;SDS011;724;49.910;12.530;2023-02-28T02:26:20;7.32;;;6.93;;
1460;SDS011;724;49.910;12.530;2023-02-28T02:29:10;7.35;;;6.95;;
1460;SDS011;724;49.910;12.530;2023-02-28T02:32:05;6.70;;;6.30;;
1460;SDS011;724;49.910;12.530;2023-02-28T02:34:50;5.95;;;5.65;;
1460;SDS011;724;49.910;12.530;2023-02-28T02:37:27;5.63;;;5.32;;
1460;SDS011;724;49.910;12.530;2023-02-28T02:40:03;5.45;;;5.15;;
1460;SDS011;724;49.910;12.530;2023-02-28T02:42:39;5.18;;;4.88;;
1460;SDS011;724;49.910;12.530;2023-02-28T02:45:11;5.15;;;4.85;;
1460;SDS011;724;49.910;12.530;2023-02-28T02:47:42;4.60;;;4.30;;
1460;SDS011;724;49.910;12.530;2023-02-28T02:50:13;4.97;;;4.68;;
1460;SDS011;724;49.910;12.530;2023-02-28T02:52:45;5.00;;;4.70;;
1460;SDS011;724;49.910;12.530;2023-02-28T02:55:17;5.20;;;4.90;;
1460;SDS011;724;49.910;12.530;2023-02-28T02:57:47;4.85;;;4.55;;
1460;SDS011;724;49.910;12.530;2023-02-28T03:00:16;4.85;;;4.55;;
1460;SDS011;724;49.910;12.530;2023-02-28T03:02:46;4.70;;;4.40;;
1460;SDS011;724;49.910;12.530;2023-02-28T03:05:17;4.30;;;4.00;;
1460;SDS011;724;49.910;12.530;2023-02-28T03:07:47;5.00;;;4.70;;
1460;SDS011;724;49.910;12.530;2023-02-28T03:10:32;4.82;;;4.53;;
1460;SDS011;724;49.910;12.530;2023-02-28T03:16:01;4.40;;;4.10;;
1460;SDS011;724;49.910;12.530;2023-02-28T03:18:39;4.63;;;4.32;;
1460;SDS011;724;49.910;12.530;2023-02-28T03:21:18;4.60;;;4.30;;
1460;SDS011;724;49.910;12.530;2023-02-28T03:23:53;4.35;;;4.05;;
1460;SDS011;724;49.910;12.530;2023-02-28T03:26:26;4.60;;;4.30;;
1460;SDS011;724;49.910;12.530;2023-02-28T03:28:55;4.70;;;4.40;;
1460;SDS011;724;49.910;12.530;2023-02-28T03:31:30;3.80;;;3.60;;
1460;SDS011;724;49.910;12.530;2023-02-28T03:34:00;4.35;;;4.05;;
1460;SDS011;724;49.910;12.530;2023-02-28T03:36:33;4.53;;;4.22;;
1460;SDS011;724;49.910;12.530;2023-02-28T03:39:09;4.60;;;4.30;;
1460;SDS011;724;49.910;12.530;2023-02-28T03:41:40;4.50;;;4.20;;
1460;SDS011;724;49.910;12.530;2023-02-28T03:44:13;4.55;;;4.25;;
1460;SDS011;724;49.910;12.530;2023-02-28T03:46:45;4.05;;;3.85;;
1460;SDS011;724;49.910;12.530;2023-02-28T03:49:17;4.45;;;4.15;;
1460;SDS011;724;49.910;12.530;2023-02-28T03:51:47;4.35;;;4.05;;
1460;SDS011;724;49.910;12.530;2023-02-28T03:54:17;4.50;;;4.20;;
1460;SDS011;724;49.910;12.530;2023-02-28T03:56:48;4.10;;;3.90;;
1460;SDS011;724;49.910;12.530;2023-02-28T03:59:20;4.30;;;4.00;;
1460;SDS011;724;49.910;12.530;2023-02-28T04:01:51;4.10;;;3.90;;
1460;SDS011;724;49.910;12.530;2023-02-28T04:04:20;4.60;;;4.30;;
1460;SDS011;724;49.910;12.530;2023-02-28T04:06:50;5.30;;;5.00;;
1460;SDS011;724;49.910;12.530;2023-02-28T04:09:18;5.60;;;5.30;;
1460;SDS011;724;49.910;12.530;2023-02-28T04:11:46;5.55;;;5.25;;
1460;SDS011;724;49.910;12.530;2023-02-28T04:14:17;5.20;;;4.90;;
1460;SDS011;724;49.910;12.530;2023-02-28T04:16:44;5.30;;;5.00;;
1460;SDS011;724;49.910;12.530;2023-02-28T04:19:12;5.03;;;4.72;;
1460;SDS011;724;49.910;12.530;2023-02-28T04:21:41;4.85;;;4.55;;
1460;SDS011;724;49.910;12.530;2023-02-28T04:24:11;4.78;;;4.47;;
1460;SDS011;724;49.910;12.530;2023-02-28T04:26:40;5.00;;;4.70;;
1460;SDS011;724;49.910;12.530;2023-02-28T04:29:09;4.75;;;4.45;;
1460;SDS011;724;49.910;12.530;2023-02-28T04:31:37;4.75;;;4.45;;
1460;SDS011;724;49.910;12.530;2023-02-28T04:34:03;4.65;;;4.35;;
1460;SDS011;724;49.910;12.530;2023-02-28T04:36:31;4.90;;;4.60;;
1460;SDS011;724;49.910;12.530;2023-02-28T04:38:58;4.68;;;4.38;;
1460;SDS011;724;49.910;12.530;2023-02-28T04:41:26;4.53;;;4.22;;
1460;SDS011;724;49.910;12.530;2023-02-28T04:43:53;4.70;;;4.40;;
1460;SDS011;724;49.910;12.530;2023-02-28T04:46:21;4.70;;;4.40;;
1460;SDS011;724;49.910;12.530;2023-02-28T04:48:48;4.20;;;3.95;;
1460;SDS011;724;49.910;12.530;2023-02-28T04:51:15;3.80;;;3.60;;
1460;SDS011;724;49.910;12.530;2023-02-28T04:53:43;3.75;;;3.55;;
1460;SDS011;724;49.910;12.530;2023-02-28T04:56:11;4.00;;;3.80;;
1460;SDS011;724;49.910;12.530;2023-02-28T04:58:40;4.00;;;3.80;;
1460;SDS011;724;49.910;12.530;2023-02-28T05:01:14;4.55;;;4.25;;
1460;SDS011;724;49.910;12.530;2023-02-28T05:03:44;3.92;;;3.72;;
1460;SDS011;724;49.910;12.530;2023-02-28T05:06:11;4.38;;;4.07;;
1460;SDS011;724;49.910;12.530;2023-02-28T05:08:38;4.70;;;4.40;;
1460;SDS011;724;49.910;12.530;2023-02-28T05:11:06;4.10;;;3.90;;
1460;SDS011;724;49.910;12.530;2023-02-28T05:13:34;4.60;;;4.30;;
1460;SDS011;724;49.910;12.530;2023-02-28T05:16:03;4.60;;;4.30;;
1460;SDS011;724;49.910;12.530;2023-02-28T05:18:30;5.43;;;5.13;;
1460;SDS011;724;49.910;12.530;2023-02-28T05:20:57;5.05;;;4.75;;
1460;SDS011;724;49.910;12.530;2023-02-28T05:23:23;4.95;;;4.65;;
1460;SDS011;724;49.910;12.530;2023-02-28T05:25:50;5.18;;;4.88;;
1460;SDS011;724;49.910;12.530;2023-02-28T05:28:17;4.90;;;4.60;;
1460;SDS011;724;49.910;12.530;2023-02-28T05:30:45;4.75;;;4.45;;
1460;SDS011;724;49.910;12.530;2023-02-28T05:33:13;5.20;;;4.90;;
1460;SDS011;724;49.910;12.530;2023-02-28T05:35:42;4.75;;;4.45;;
1460;SDS011;724;49.910;12.530;2023-02-28T05:38:08;4.40;;;4.10;;
1460;SDS011;724;49.910;12.530;2023-02-28T05:40:35;5.15;;;4.85;;
1460;SDS011;724;49.910;12.530;2023-02-28T05:43:08;4.80;;;4.50;;
1460;SDS011;724;49.910;12.530;2023-02-28T05:45:36;4.88;;;4.57;;
1460;SDS011;724;49.910;12.530;2023-02-28T05:48:03;5.15;;;4.85;;
1460;SDS011;724;49.910;12.530;2023-02-28T05:50:32;5.15;;;4.85;;
1460;SDS011;724;49.910;12.530;2023-02-28T05:52:59;5.65;;;5.35;;
1460;SDS011;724;49.910;12.530;2023-02-28T05:55:25;4.82;;;4.53;;
1460;SDS011;724;49.910;12.530;2023-02-28T05:57:52;5.10;;;4.80;;
1460;SDS011;724;49.910;12.530;2023-02-28T06:00:19;5.50;;;5.20;;
1460;SDS011;724;49.910;12.530;2023-02-28T06:02:46;5.32;;;5.03;;
1460;SDS011;724;49.910;12.530;2023-02-28T06:05:14;4.93;;;4.63;;
1460;SDS011;724;49.910;12.530;2023-02-28T06:07:43;5.20;;;4.90;;
1460;SDS011;724;49.910;12.530;2023-02-28T06:10:11;4.72;;;4.43;;
1460;SDS011;724;49.910;12.530;2023-02-28T06:12:38;4.30;;;4.00;;
1460;SDS011;724;49.910;12.530;2023-02-28T06:15:06;4.50;;;4.20;;
1460;SDS011;724;49.910;12.530;2023-02-28T06:17:36;4.60;;;4.30;;
1460;SDS011;724;49.910;12.530;2023-02-28T06:20:03;5.35;;;5.05;;
1460;SDS011;724;49.910;12.530;2023-02-28T06:22:31;5.07;;;4.78;;
1460;SDS011;724;49.910;12.530;2023-02-28T06:24:59;5.10;;;4.80;;
1460;SDS011;724;49.910;12.530;2023-02-28T06:27:26;5.63;;;5.32;;
1460;SDS011;724;49.910;12.530;2023-02-28T06:29:53;5.55;;;5.25;;
1460;SDS011;724;49.910;12.530;2023-02-28T06:32:21;5.78;;;5.47;;
1460;SDS011;724;49.910;12.530;2023-02-28T06:34:48;5.63;;;5.32;;
1460;SDS011;724;49.910;12.530;2023-02-28T06:37:15;6.07;;;5.78;;
1460;SDS011;724;49.910;12.530;2023-02-28T06:39:42;6.10;;;5.80;;
1460;SDS011;724;49.910;12.530;2023-02-28T06:42:11;6.00;;;5.70;;
1460;SDS011;724;49.910;12.530;2023-02-28T06:44:38;6.65;;;6.25;;
1460;SDS011;724;49.910;12.530;2023-02-28T06:47:06;7.10;;;6.70;;
1460;SDS011;724;49.910;12.530;2023-02-28T06:49:34;6.50;;;6.10;;
1460;SDS011;724;49.910;12.530;2023-02-28T06:52:01;6.70;;;6.30;;
1460;SDS011;724;49.910;12.530;2023-02-28T06:54:29;6.80;;;6.40;;
1460;SDS011;724;49.910;12.530;2023-02-28T06:56:57;7.43;;;7.03;;
1460;SDS011;724;49.910;12.530;2023-02-28T06:59:25;7.70;;;7.30;;
1460;SDS011;724;49.910;12.530;2023-02-28T07:01:52;7.80;;;7.40;;
1460;SDS011;724;49.910;12.530;2023-02-28T07:04:19;8.10;;;7.70;;
1460;SDS011;724;49.910;12.530;2023-02-28T07:06:46;8.90;;;8.40;;
1460;SDS011;724;49.910;12.530;2023-02-28T07:09:13;9.23;;;8.73;;
1460;SDS011;724;49.910;12.530;2023-02-28T07:11:40;9.13;;;8.63;;
1460;SDS011;724;49.910;12.530;2023-02-28T07:14:08;9.90;;;9.40;;
1460;SDS011;724;49.910;12.530;2023-02-28T07:16:36;9.20;;;8.70;;
1460;SDS011;724;49.910;12.530;2023-02-28T07:19:03;8.90;;;8.40;;
1460;SDS011;724;49.910;12.530;2023-02-28T07:21:30;10.43;;;9.90;;
1460;SDS011;724;49.910;12.530;2023-02-28T07:23:56;12.85;;;12.15;;
1460;SDS011;724;49.910;12.530;2023-02-28T07:26:23;13.00;;;12.30;;
1460;SDS011;724;49.910;12.530;2023-02-28T07:28:50;13.60;;;12.90;;
1460;SDS011;724;49.910;12.530;2023-02-28T07:31:17;14.00;;;13.30;;
1460;SDS011;724;49.910;12.530;2023-02-28T07:33:46;13.90;;;13.20;;
1460;SDS011;724;49.910;12.530;2023-02-28T07:36:13;13.60;;;12.90;;
1460;SDS011;724;49.910;12.530;2023-02-28T07:38:43;13.55;;;12.85;;
1460;SDS011;724;49.910;12.530;2023-02-28T07:41:11;13.95;;;13.25;;
1460;SDS011;724;49.910;12.530;2023-02-28T07:43:38;13.45;;;12.75;;
1460;SDS011;724;49.910;12.530;2023-02-28T07:46:06;13.90;;;13.20;;
1460;SDS011;724;49.910;12.530;2023-02-28T07:48:34;13.80;;;13.10;;
1460;SDS011;724;49.910;12.530;2023-02-28T07:51:02;13.60;;;12.90;;
1460;SDS011;724;49.910;12.530;2023-02-28T07:53:29;13.10;;;12.40;;
1460;SDS011;724;49.910;12.530;2023-02-28T07:55:56;12.80;;;12.10;;
1460;SDS011;724;49.910;12.530;2023-02-28T07:58:23;13.60;;;12.90;;
1460;SDS011;724;49.910;12.530;2023-02-28T08:00:51;13.70;;;13.00;;
1460;SDS011;724;49.910;12.530;2023-02-28T08:03:18;14.32;;;13.63;;
1460;SDS011;724;49.910;12.530;2023-02-28T08:05:45;14.20;;;13.50;;
1460;SDS011;724;49.910;12.530;2023-02-28T08:08:14;14.30;;;13.60;;
1460;SDS011;724;49.910;12.530;2023-02-28T08:10:41;14.05;;;13.35;;
1460;SDS011;724;49.910;12.530;2023-02-28T08:13:08;14.18;;;13.48;;
1460;SDS011;724;49.910;12.530;2023-02-28T08:15:35;13.70;;;13.00;;
1460;SDS011;724;49.910;12.530;2023-02-28T08:18:02;13.90;;;13.20;;
1460;SDS011;724;49.910;12.530;2023-02-28T08:20:29;14.30;;;13.60;;
1460;SDS011;724;49.910;12.530;2023-02-28T08:22:55;14.20;;;13.50;;
1460;SDS011;724;49.910;12.530;2023-02-28T08:25:23;13.90;;;13.20;;
1460;SDS011;724;49.910;12.530;2023-02-28T08:27:50;14.85;;;14.05;;
1460;SDS011;724;49.910;12.530;2023-02-28T08:30:18;14.60;;;13.90;;
1460;SDS011;724;49.910;12.530;2023-02-28T08:32:44;15.20;;;14.40;;
1460;SDS011;724;49.910;12.530;2023-02-28T08:35:11;14.18;;;13.48;;
1460;SDS011;724;49.910;12.530;2023-02-28T08:37:38;14.15;;;13.45;;
1460;SDS011;724;49.910;12.530;2023-02-28T08:40:05;14.60;;;13.90;;
1460;SDS011;724;49.910;12.530;2023-02-28T08:42:34;15.00;;;14.20;;
1460;SDS011;724;49.910;12.530;2023-02-28T08:45:02;14.75;;;13.98;;
1460;SDS011;724;49.910;12.530;2023-02-28T08:47:29;15.10;;;14.30;;
1460;SDS011;724;49.910;12.530;2023-02-28T08:49:56;14.75;;;13.98;;
1460;SDS011;724;49.910;12.530;2023-02-28T08:52:22;14.57;;;13.88;;
1460;SDS011;724;49.910;12.530;2023-02-28T08:54:49;14.10;;;13.40;;
1460;SDS011;724;49.910;12.530;2023-02-28T08:57:16;14.55;;;13.85;;
1460;SDS011;724;49.910;12.530;2023-02-28T08:59:44;14.30;;;13.60;;
1460;SDS011;724;49.910;12.530;2023-02-28T09:02:12;14.40;;;13.70;;
1460;SDS011;724;49.910;12.530;2023-02-28T09:04:39;14.15;;;13.45;;
1460;SDS011;724;49.910;12.530;2023-02-28T09:07:06;14.75;;;13.98;;
1460;SDS011;724;49.910;12.530;2023-02-28T09:09:33;14.18;;;13.48;;
1460;SDS011;724;49.910;12.530;2023-02-28T09:12:00;14.48;;;13.77;;
1460;SDS011;724;49.910;12.530;2023-02-28T09:14:27;14.65;;;13.93;;
1460;SDS011;724;49.910;12.530;2023-02-28T09:16:55;15.10;;;14.30;;
1460;SDS011;724;49.910;12.530;2023-02-28T09:19:22;15.25;;;14.45;;
1460;SDS011;724;49.910;12.530;2023-02-28T09:21:48;15.20;;;14.40;;
1460;SDS011;724;49.910;12.530;2023-02-28T09:24:15;14.90;;;14.10;;
1460;SDS011;724;49.910;12.530;2023-02-28T09:26:43;15.52;;;14.73;;
1460;SDS011;724;49.910;12.530;2023-02-28T09:29:09;15.70;;;14.90;;
1460;SDS011;724;49.910;12.530;2023-02-28T09:31:37;16.02;;;15.23;;
1460;SDS011;724;49.910;12.530;2023-02-28T09:34:05;16.10;;;15.30;;
1460;SDS011;724;49.910;12.530;2023-02-28T09:36:32;16.10;;;15.30;;
1460;SDS011;724;49.910;12.530;2023-02-28T09:39:00;15.88;;;15.07;;
1460;SDS011;724;49.910;12.530;2023-02-28T09:41:27;16.30;;;15.50;;
1460;SDS011;724;49.910;12.530;2023-02-28T09:44:00;16.65;;;15.85;;
1460;SDS011;724;49.910;12.530;2023-02-28T09:46:32;16.13;;;15.32;;
1460;SDS011;724;49.910;12.530;2023-02-28T09:49:00;16.20;;;15.40;;
1460;SDS011;724;49.910;12.530;2023-02-28T09:51:35;16.17;;;15.38;;
1460;SDS011;724;49.910;12.530;2023-02-28T09:54:11;15.98;;;15.18;;
1460;SDS011;724;49.910;12.530;2023-02-28T09:56:43;16.60;;;15.80;;
1460;SDS011;724;49.910;12.530;2023-02-28T09:59:13;16.90;;;16.00;;
1460;SDS011;724;49.910;12.530;2023-02-28T10:01:50;16.50;;;15.70;;
1460;SDS011;724;49.910;12.530;2023-02-28T10:04:31;16.63;;;15.82;;
1460;SDS011;724;49.910;12.530;2023-02-28T10:07:10;17.20;;;16.30;;
1460;SDS011;724;49.910;12.530;2023-02-28T10:09:45;16.60;;;15.80;;
1460;SDS011;724;49.910;12.530;2023-02-28T10:12:17;16.45;;;15.65;;
1460;SDS011;724;49.910;12.530;2023-02-28T10:14:46;16.50;;;15.70;;
1460;SDS011;724;49.910;12.530;2023-02-28T10:17:17;17.00;;;16.10;;
1460;SDS011;724;49.910;12.530;2023-02-28T10:19:49;17.20;;;16.30;;
1460;SDS011;724;49.910;12.530;2023-02-28T10:22:24;16.70;;;15.90;;
1460;SDS011;724;49.910;12.530;2023-02-28T10:24:54;17.02;;;16.13;;
1460;SDS011;724;49.910;12.530;2023-02-28T10:27:25;17.00;;;16.10;;
1460;SDS011;724;49.910;12.530;2023-02-28T10:29:56;16.40;;;15.60;;
1460;SDS011;724;49.910;12.530;2023-02-28T10:32:25;16.50;;;15.70;;
1460;SDS011;724;49.910;12.530;2023-02-28T10:34:55;16.40;;;15.60;;
1460;SDS011;724;49.910;12.530;2023-02-28T10:37:27;16.67;;;15.88;;
1460;SDS011;724;49.910;12.530;2023-02-28T10:39:54;16.33;;;15.52;;
1460;SDS011;724;49.910;12.530;2023-02-28T10:42:23;16.50;;;15.70;;
1460;SDS011;724;49.910;12.530;2023-02-28T10:45:04;16.50;;;15.70;;
1460;SDS011;724;49.910;12.530;2023-02-28T10:47:37;16.90;;;16.00;;
1460;SDS011;724;49.910;12.530;2023-02-28T10:50:25;16.10;;;15.30;;
1460;SDS011;724;49.910;12.530;2023-02-28T10:52:55;15.95;;;15.15;;
1460;SDS011;724;49.910;12.530;2023-02-28T10:55:34;16.25;;;15.45;;
1460;SDS011;724;49.910;12.530;2023-02-28T10:58:02;16.10;;;15.30;;
1460;SDS011;724;49.910;12.530;2023-02-28T11:00:39;16.15;;;15.35;;
1460;SDS011;724;49.910;12.530;2023-02-28T11:03:09;15.90;;;15.10;;
1460;SDS011;724;49.910;12.530;2023-02-28T11:05:51;16.30;;;15.50;;
1460;SDS011;724;49.910;12.530;2023-02-28T11:08:19;16.70;;;15.90;;
1460;SDS011;724;49.910;12.530;2023-02-28T11:10:46;16.60;;;15.80;;
1460;SDS011;724;49.910;12.530;2023-02-28T11:13:16;17.05;;;16.15;;
1460;SDS011;724;49.910;12.530;2023-02-28T11:15:49;17.00;;;16.10;;
1460;SDS011;724;49.910;12.530;2023-02-28T11:18:24;15.93;;;15.13;;
1460;SDS011;724;49.910;12.530;2023-02-28T11:20:55;16.40;;;15.60;;
1460;SDS011;724;49.910;12.530;2023-02-28T11:23:27;16.63;;;15.82;;
1460;SDS011;724;49.910;12.530;2023-02-28T11:25:59;16.27;;;15.48;;
1460;SDS011;724;49.910;12.530;2023-02-28T11:28:28;17.10;;;16.20;;
1460;SDS011;724;49.910;12.530;2023-02-28T11:31:02;16.90;;;16.00;;
1460;SDS011;724;49.910;12.530;2023-02-28T11:33:32;17.00;;;16.10;;
1460;SDS011;724;49.910;12.530;2023-02-28T11:36:09;17.10;;;16.20;;
1460;SDS011;724;49.910;12.530;2023-02-28T11:38:38;16.70;;;15.90;;
1460;SDS011;724;49.910;12.530;2023-02-28T11:41:10;17.10;;;16.20;;
1460;SDS011;724;49.910;12.530;2023-02-28T11:43:58;16.70;;;15.90;;
1460;SDS011;724;49.910;12.530;2023-02-28T11:46:33;16.50;;;15.70;;
1460;SDS011;724;49.910;12.530;2023-02-28T11:49:14;16.90;;;16.00;;
1460;SDS011;724;49.910;12.530;2023-02-28T11:51:50;16.50;;;15.70;;
1460;SDS011;724;49.910;12.530;2023-02-28T11:54:40;16.70;;;15.90;;
1460;SDS011;724;49.910;12.530;2023-02-28T11:57:36;16.90;;;16.00;;
1460;SDS011;724;49.910;12.530;2023-02-28T12:00:19;16.70;;;15.90;;
1460;SDS011;724;49.910;12.530;2023-02-28T12:03:06;16.55;;;15.75;;
1460;SDS011;724;49.910;12.530;2023-02-28T12:05:44;16.70;;;15.90;;
1460;SDS011;724;49.910;12.530;2023-02-28T12:08:20;17.00;;;16.10;;
1460;SDS011;724;49.910;12.530;2023-02-28T12:10:58;16.90;;;16.00;;
1460;SDS011;724;49.910;12.530;2023-02-28T12:13:35;16.88;;;16.00;;
1460;SDS011;724;49.910;12.530;2023-02-28T12:16:16;16.50;;;15.70;;
1460;SDS011;724;49.910;12.530;2023-02-28T12:19:10;16.90;;;16.00;;
1460;SDS011;724;49.910;12.530;2023-02-28T12:21:47;16.50;;;15.70;;
1460;SDS011;724;49.910;12.530;2023-02-28T12:27:23;16.38;;;15.57;;
1460;SDS011;724;49.910;12.530;2023-02-28T12:29:54;16.10;;;15.30;;
1460;SDS011;724;49.910;12.530;2023-02-28T12:32:25;15.90;;;15.10;;
1460;SDS011;724;49.910;12.530;2023-02-28T12:34:57;15.95;;;15.15;;
1460;SDS011;724;49.910;12.530;2023-02-28T12:37:27;15.98;;;15.18;;
1460;SDS011;724;49.910;12.530;2023-02-28T12:40:01;16.38;;;15.57;;
1460;SDS011;724;49.910;12.530;2023-02-28T12:42:33;15.93;;;15.13;;
1460;SDS011;724;49.910;12.530;2023-02-28T12:45:07;15.80;;;15.00;;
1460;SDS011;724;49.910;12.530;2023-02-28T12:47:40;15.52;;;14.73;;
1460;SDS011;724;49.910;12.530;2023-02-28T12:50:10;15.50;;;14.70;;
1460;SDS011;724;49.910;12.530;2023-02-28T12:52:40;15.60;;;14.80;;
1460;SDS011;724;49.910;12.530;2023-02-28T12:55:18;15.55;;;14.75;;
1460;SDS011;724;49.910;12.530;2023-02-28T12:57:52;16.60;;;15.80;;
1460;SDS011;724;49.910;12.530;2023-02-28T13:00:29;16.00;;;15.20;;
1460;SDS011;724;49.910;12.530;2023-02-28T13:06:05;16.40;;;15.60;;
1460;SDS011;724;49.910;12.530;2023-02-28T13:11:38;16.60;;;15.80;;
1460;SDS011;724;49.910;12.530;2023-02-28T13:14:15;16.48;;;15.68;;
1460;SDS011;724;49.910;12.530;2023-02-28T13:16:52;16.55;;;15.75;;
1460;SDS011;724;49.910;12.530;2023-02-28T13:19:22;16.00;;;15.20;;
1460;SDS011;724;49.910;12.530;2023-02-28T13:21:52;15.77;;;14.98;;
1460;SDS011;724;49.910;12.530;2023-02-28T13:33:24;16.00;;;15.20;;
1460;SDS011;724;49.910;12.530;2023-02-28T13:36:22;15.35;;;14.55;;
1460;SDS011;724;49.910;12.530;2023-02-28T13:38:52;16.30;;;15.50;;
1460;SDS011;724;49.910;12.530;2023-02-28T13:44:10;15.65;;;14.85;;
1460;SDS011;724;49.910;12.530;2023-02-28T13:49:52;15.40;;;14.60;;
1460;SDS011;724;49.910;12.530;2023-02-28T13:52:20;15.80;;;15.00;;
1460;SDS011;724;49.910;12.530;2023-02-28T13:54:52;16.20;;;15.40;;
1460;SDS011;724;49.910;12.530;2023-02-28T13:57:41;16.20;;;15.40;;
1460;SDS011;724;49.910;12.530;2023-02-28T14:00:17;15.70;;;14.90;;
1460;SDS011;724;49.910;12.530;2023-02-28T14:02:59;16.00;;;15.20;;
1460;SDS011;724;49.910;12.530;2023-02-28T14:05:35;15.32;;;14.52;;
1460;SDS011;724;49.910;12.530;2023-02-28T14:08:04;15.15;;;14.35;;
1460;SDS011;724;49.910;12.530;2023-02-28T14:10:39;15.52;;;14.73;;
1460;SDS011;724;49.910;12.530;2023-02-28T14:16:11;15.50;;;14.70;;
1460;SDS011;724;49.910;12.530;2023-02-28T14:18:41;15.60;;;14.80;;
1460;SDS011;724;49.910;12.530;2023-02-28T14:21:16;15.40;;;14.60;;
1460;SDS011;724;49.910;12.530;2023-02-28T14:24:13;15.65;;;14.85;;
1460;SDS011;724;49.910;12.530;2023-02-28T14:33:19;15.32;;;14.52;;
1460;SDS011;724;49.910;12.530;2023-02-28T14:35:58;15.20;;;14.40;;
1460;SDS011;724;49.910;12.530;2023-02-28T14:38:32;15.60;;;14.80;;
1460;SDS011;724;49.910;12.530;2023-02-28T14:41:03;15.30;;;14.50;;
1460;SDS011;724;49.910;12.530;2023-02-28T14:43:46;15.60;;;14.80;;
1460;SDS011;724;49.910;12.530;2023-02-28T14:46:15;15.43;;;14.63;;
1460;SDS011;724;49.910;12.530;2023-02-28T14:48:44;15.63;;;14.82;;
1460;SDS011;724;49.910;12.530;2023-02-28T14:51:12;15.23;;;14.43;;
1460;SDS011;724;49.910;12.530;2023-02-28T14:53:48;15.40;;;14.60;;
1460;SDS011;724;49.910;12.530;2023-02-28T14:56:21;15.50;;;14.70;;
1460;SDS011;724;49.910;12.530;2023-02-28T14:58:53;15.45;;;14.65;;
1460;SDS011;724;49.910;12.530;2023-02-28T15:01:22;15.45;;;14.65;;
1460;SDS011;724;49.910;12.530;2023-02-28T15:03:57;15.30;;;14.50;;
1460;SDS011;724;49.910;12.530;2023-02-28T15:06:26;15.80;;;15.00;;
1460;SDS011;724;49.910;12.530;2023-02-28T15:09:15;15.02;;;14.23;;
1460;SDS011;724;49.910;12.530;2023-02-28T15:11:45;15.02;;;14.23;;
1460;SDS011;724;49.910;12.530;2023-02-28T15:14:15;15.00;;;14.20;;
1460;SDS011;724;49.910;12.530;2023-02-28T15:16:45;15.20;;;14.40;;
1460;SDS011;724;49.910;12.530;2023-02-28T15:19:17;15.20;;;14.40;;
1460;SDS011;724;49.910;12.530;2023-02-28T15:21:48;15.07;;;14.27;;
1460;SDS011;724;49.910;12.530;2023-02-28T15:24:19;15.00;;;14.20;;
1460;SDS011;724;49.910;12.530;2023-02-28T15:26:51;15.00;;;14.20;;
1460;SDS011;724;49.910;12.530;2023-02-28T15:29:21;14.55;;;13.85;;
1460;SDS011;724;49.910;12.530;2023-02-28T15:31:50;14.75;;;13.98;;
1460;SDS011;724;49.910;12.530;2023-02-28T15:34:22;14.90;;;14.10;;
1460;SDS011;724;49.910;12.530;2023-02-28T15:36:55;15.05;;;14.25;;
1460;SDS011;724;49.910;12.530;2023-02-28T15:39:23;15.30;;;14.50;;
1460;SDS011;724;49.910;12.530;2023-02-28T15:41:54;15.10;;;14.30;;
1460;SDS011;724;49.910;12.530;2023-02-28T15:44:36;15.00;;;14.20;;
1460;SDS011;724;49.910;12.530;2023-02-28T15:47:04;14.90;;;14.10;;
1460;SDS011;724;49.910;12.530;2023-02-28T15:49:34;14.88;;;14.07;;
1460;SDS011;724;49.910;12.530;2023-02-28T15:52:05;14.30;;;13.60;;
1460;SDS011;724;49.910;12.530;2023-02-28T15:54:40;15.00;;;14.20;;
1460;SDS011;724;49.910;12.530;2023-02-28T15:57:10;15.43;;;14.63;;
1460;SDS011;724;49.910;12.530;2023-02-28T15:59:44;15.30;;;14.50;;
1460;SDS011;724;49.910;12.530;2023-02-28T16:02:16;15.10;;;14.30;;